Airfield :
LOGIN :

Register | Disclaimer

   EN    FR    IT 

 










Legend :    VFR   Marginal VFR   IFR   Intensive IFR   Very Intensive IFR
Visi :
Ceiling :
>= 8 km
>= 3000ft
5 to 8 km
1000 to 3000 ft
1500m to 5 km
500 to 1000 ft
800 to 1500m
200 to 500 ft
< 800m
< 200 ft
Symbols :   Thunderstorms  Fog  Heavy snow  Heavy precipitations  Wind > 20 kt
SIGMETs :     Misc.  Thunderstorms  Icing  Turbulence  Mountain Waves  Volcanic Ashes






- Airport Elevation : 277 ft
- IATA code : JER


EGJJ - Jersey

CURRENT METAR :
  • 200050Z AUTO 06007KT 9999 NCD 06/03 Q1048

EXPIRED METARs :
  • 200020Z AUTO 05007KT 9999 FEW033/// 06/03 Q1048
  • 192350Z AUTO 05006KT 010V080 9999 NCD 06/03 Q1048
  • 192320Z AUTO 06006KT 9999 NCD 06/02 Q1048
  • 192250Z AUTO 05007KT 020V080 9999 NCD 06/02 Q1048
  • 192220Z AUTO 06007KT 030V090 9999 NCD 06/02 Q1048

TAF TAF EGJJ
Valid from the 20 at 00:00 until the 20 at 09:00 UTC


192255Z 2000/2009 04006KT CAVOK
ATIS : +44 1534 498 073



MET'MAP, your aeronautical weather chart ! - Copyright ORBIFLY December 2007 - Disclaimer

ORBIFLY MET'MAP TEAM :

Programming & Development : Alexandra Zaïnal
Concept & original design : Baudouin d'Aumeries
Assistance for programming : Marc-Olivier Méhu
Technical & hardware support : Manuel Goepfert

Contact : metmap@orbifly.com




SOURCES & CREDITS :

   NOAA